sensor_id;sensor_type;location;lat;lon;timestamp;temperature;humidity
18593;DHT22;9426;54.118;17.948;2022-07-29T00:03:38;11.80;99.90
18593;DHT22;9426;54.118;17.948;2022-07-29T00:09:03;11.80;99.90
18593;DHT22;9426;54.118;17.948;2022-07-29T00:14:28;11.80;99.90
18593;DHT22;9426;54.118;17.948;2022-07-29T00:19:52;11.60;99.90
18593;DHT22;9426;54.118;17.948;2022-07-29T00:25:17;11.50;99.90
18593;DHT22;9426;54.118;17.948;2022-07-29T00:30:41;11.30;99.90
18593;DHT22;9426;54.118;17.948;2022-07-29T00:36:05;11.30;99.90
18593;DHT22;9426;54.118;17.948;2022-07-29T00:41:31;11.10;99.90
18593;DHT22;9426;54.118;17.948;2022-07-29T00:46:54;11.00;99.90
18593;DHT22;9426;54.118;17.948;2022-07-29T00:52:18;11.00;99.90
18593;DHT22;9426;54.118;17.948;2022-07-29T00:57:44;10.90;99.90
18593;DHT22;9426;54.118;17.948;2022-07-29T01:03:08;10.90;99.90
18593;DHT22;9426;54.118;17.948;2022-07-29T01:08:32;10.80;99.90
18593;DHT22;9426;54.118;17.948;2022-07-29T01:13:58;10.70;99.90
18593;DHT22;9426;54.118;17.948;2022-07-29T01:19:39;10.70;99.90
18593;DHT22;9426;54.118;17.948;2022-07-29T01:25:20;10.70;99.90
18593;DHT22;9426;54.118;17.948;2022-07-29T01:30:51;10.60;99.90
18593;DHT22;9426;54.118;17.948;2022-07-29T01:36:18;10.60;99.90
18593;DHT22;9426;54.118;17.948;2022-07-29T01:41:49;10.60;99.90
18593;DHT22;9426;54.118;17.948;2022-07-29T01:47:19;10.60;99.90
18593;DHT22;9426;54.118;17.948;2022-07-29T01:52:49;10.50;99.90
18593;DHT22;9426;54.118;17.948;2022-07-29T01:58:13;10.50;99.90
18593;DHT22;9426;54.118;17.948;2022-07-29T02:03:55;10.50;99.90
18593;DHT22;9426;54.118;17.948;2022-07-29T02:09:20;10.50;99.90
18593;DHT22;9426;54.118;17.948;2022-07-29T02:14:48;10.50;99.90
18593;DHT22;9426;54.118;17.948;2022-07-29T02:20:13;10.50;99.90
18593;DHT22;9426;54.118;17.948;2022-07-29T02:25:37;10.50;99.90
18593;DHT22;9426;54.118;17.948;2022-07-29T02:31:02;10.50;99.90
18593;DHT22;9426;54.118;17.948;2022-07-29T02:36:28;10.40;99.90
18593;DHT22;9426;54.118;17.948;2022-07-29T02:41:59;10.40;99.90
18593;DHT22;9426;54.118;17.948;2022-07-29T02:47:32;10.40;99.90
18593;DHT22;9426;54.118;17.948;2022-07-29T02:53:02;10.40;99.90
18593;DHT22;9426;54.118;17.948;2022-07-29T02:58:30;10.40;99.90
18593;DHT22;9426;54.118;17.948;2022-07-29T03:03:55;10.40;99.90
18593;DHT22;9426;54.118;17.948;2022-07-29T03:09:21;10.50;99.90
18593;DHT22;9426;54.118;17.948;2022-07-29T03:14:46;10.60;99.90
18593;DHT22;9426;54.118;17.948;2022-07-29T03:20:11;10.70;99.90
18593;DHT22;9426;54.118;17.948;2022-07-29T03:25:37;10.90;99.90
18593;DHT22;9426;54.118;17.948;2022-07-29T03:31:00;11.00;99.90
18593;DHT22;9426;54.118;17.948;2022-07-29T03:36:24;11.20;99.90
18593;DHT22;9426;54.118;17.948;2022-07-29T03:41:53;11.30;99.90
18593;DHT22;9426;54.118;17.948;2022-07-29T03:47:20;11.50;99.90
18593;DHT22;9426;54.118;17.948;2022-07-29T03:52:45;11.60;99.90
18593;DHT22;9426;54.118;17.948;2022-07-29T03:58:12;11.80;99.90
18593;DHT22;9426;54.118;17.948;2022-07-29T04:03:36;12.00;99.90
18593;DHT22;9426;54.118;17.948;2022-07-29T04:08:59;12.20;99.90
18593;DHT22;9426;54.118;17.948;2022-07-29T04:14:24;12.40;99.90
18593;DHT22;9426;54.118;17.948;2022-07-29T04:19:47;12.70;99.90
18593;DHT22;9426;54.118;17.948;2022-07-29T04:25:11;13.00;99.90
18593;DHT22;9426;54.118;17.948;2022-07-29T04:30:37;13.30;99.90
18593;DHT22;9426;54.118;17.948;2022-07-29T04:36:00;13.50;99.90
18593;DHT22;9426;54.118;17.948;2022-07-29T04:41:24;13.70;99.90
18593;DHT22;9426;54.118;17.948;2022-07-29T04:46:48;14.10;99.90
18593;DHT22;9426;54.118;17.948;2022-07-29T04:52:12;14.20;99.90
18593;DHT22;9426;54.118;17.948;2022-07-29T04:57:35;14.50;99.90
18593;DHT22;9426;54.118;17.948;2022-07-29T05:03:00;14.80;99.90
18593;DHT22;9426;54.118;17.948;2022-07-29T05:08:23;15.00;99.90
18593;DHT22;9426;54.118;17.948;2022-07-29T05:13:47;15.30;99.90
18593;DHT22;9426;54.118;17.948;2022-07-29T05:19:12;15.50;99.90
18593;DHT22;9426;54.118;17.948;2022-07-29T05:24:35;15.70;99.90
18593;DHT22;9426;54.118;17.948;2022-07-29T05:29:59;15.90;99.90
18593;DHT22;9426;54.118;17.948;2022-07-29T05:35:24;16.00;99.90
18593;DHT22;9426;54.118;17.948;2022-07-29T05:40:47;16.20;99.90
18593;DHT22;9426;54.118;17.948;2022-07-29T05:46:11;16.30;99.90
18593;DHT22;9426;54.118;17.948;2022-07-29T05:51:37;16.60;99.90
18593;DHT22;9426;54.118;17.948;2022-07-29T05:57:00;16.80;99.90
18593;DHT22;9426;54.118;17.948;2022-07-29T06:02:24;17.00;99.90
18593;DHT22;9426;54.118;17.948;2022-07-29T06:07:48;17.30;99.90
18593;DHT22;9426;54.118;17.948;2022-07-29T06:13:12;17.30;99.90
18593;DHT22;9426;54.118;17.948;2022-07-29T06:18:37;17.20;99.90
18593;DHT22;9426;54.118;17.948;2022-07-29T06:24:02;17.30;99.90
18593;DHT22;9426;54.118;17.948;2022-07-29T06:29:26;17.30;99.90
18593;DHT22;9426;54.118;17.948;2022-07-29T06:34:49;17.40;99.90
18593;DHT22;9426;54.118;17.948;2022-07-29T06:40:14;17.30;99.90
18593;DHT22;9426;54.118;17.948;2022-07-29T06:45:54;17.30;99.90
18593;DHT22;9426;54.118;17.948;2022-07-29T06:51:18;17.60;99.90
18593;DHT22;9426;54.118;17.948;2022-07-29T06:56:43;17.90;99.90
18593;DHT22;9426;54.118;17.948;2022-07-29T07:02:06;18.20;99.90
18593;DHT22;9426;54.118;17.948;2022-07-29T07:07:30;18.50;99.90
18593;DHT22;9426;54.118;17.948;2022-07-29T07:12:54;18.50;99.90
18593;DHT22;9426;54.118;17.948;2022-07-29T07:18:18;18.80;99.90
18593;DHT22;9426;54.118;17.948;2022-07-29T07:23:42;18.90;99.90
18593;DHT22;9426;54.118;17.948;2022-07-29T07:29:07;19.40;99.90
18593;DHT22;9426;54.118;17.948;2022-07-29T07:34:31;19.70;99.90
18593;DHT22;9426;54.118;17.948;2022-07-29T07:39:55;19.90;99.90
18593;DHT22;9426;54.118;17.948;2022-07-29T07:45:21;19.80;99.90
18593;DHT22;9426;54.118;17.948;2022-07-29T07:50:45;19.80;99.90
18593;DHT22;9426;54.118;17.948;2022-07-29T07:56:11;19.90;99.90
18593;DHT22;9426;54.118;17.948;2022-07-29T08:01:35;19.80;99.90
18593;DHT22;9426;54.118;17.948;2022-07-29T08:06:59;19.80;99.90
18593;DHT22;9426;54.118;17.948;2022-07-29T08:12:22;19.90;99.90
18593;DHT22;9426;54.118;17.948;2022-07-29T08:17:47;20.00;99.90
18593;DHT22;9426;54.118;17.948;2022-07-29T08:23:10;20.10;99.90
18593;DHT22;9426;54.118;17.948;2022-07-29T08:28:34;20.30;99.90
18593;DHT22;9426;54.118;17.948;2022-07-29T08:33:59;20.50;99.90
18593;DHT22;9426;54.118;17.948;2022-07-29T08:39:23;20.40;99.90
18593;DHT22;9426;54.118;17.948;2022-07-29T08:44:46;20.50;99.90
18593;DHT22;9426;54.118;17.948;2022-07-29T08:50:11;20.50;99.90
18593;DHT22;9426;54.118;17.948;2022-07-29T08:55:35;20.60;99.90
18593;DHT22;9426;54.118;17.948;2022-07-29T09:01:02;20.80;99.90
18593;DHT22;9426;54.118;17.948;2022-07-29T09:06:30;20.90;99.90
18593;DHT22;9426;54.118;17.948;2022-07-29T09:11:54;21.00;99.90
18593;DHT22;9426;54.118;17.948;2022-07-29T09:17:18;21.10;99.90
18593;DHT22;9426;54.118;17.948;2022-07-29T09:23:07;20.80;99.90
18593;DHT22;9426;54.118;17.948;2022-07-29T09:28:31;21.10;99.90
18593;DHT22;9426;54.118;17.948;2022-07-29T09:33:58;21.70;99.90
18593;DHT22;9426;54.118;17.948;2022-07-29T09:39:30;22.10;99.90
18593;DHT22;9426;54.118;17.948;2022-07-29T09:44:53;22.30;99.90
18593;DHT22;9426;54.118;17.948;2022-07-29T09:50:17;22.70;99.90
18593;DHT22;9426;54.118;17.948;2022-07-29T09:55:51;22.90;99.90
18593;DHT22;9426;54.118;17.948;2022-07-29T10:01:14;22.90;99.90
18593;DHT22;9426;54.118;17.948;2022-07-29T10:06:55;23.10;99.90
18593;DHT22;9426;54.118;17.948;2022-07-29T10:12:25;23.50;99.90
18593;DHT22;9426;54.118;17.948;2022-07-29T10:17:49;23.10;99.90
18593;DHT22;9426;54.118;17.948;2022-07-29T10:23:13;22.40;99.90
18593;DHT22;9426;54.118;17.948;2022-07-29T10:28:38;22.30;99.90
18593;DHT22;9426;54.118;17.948;2022-07-29T10:34:23;23.00;99.90
18593;DHT22;9426;54.118;17.948;2022-07-29T10:39:55;23.90;99.90
18593;DHT22;9426;54.118;17.948;2022-07-29T10:45:25;24.30;99.90
18593;DHT22;9426;54.118;17.948;2022-07-29T10:50:59;24.40;97.20
18593;DHT22;9426;54.118;17.948;2022-07-29T10:56:24;24.40;96.80
18593;DHT22;9426;54.118;17.948;2022-07-29T11:01:50;25.00;94.60
18593;DHT22;9426;54.118;17.948;2022-07-29T11:07:13;25.20;93.40
18593;DHT22;9426;54.118;17.948;2022-07-29T11:12:47;25.60;90.20
18593;DHT22;9426;54.118;17.948;2022-07-29T11:18:12;25.20;84.50
18593;DHT22;9426;54.118;17.948;2022-07-29T11:23:36;25.40;83.60
18593;DHT22;9426;54.118;17.948;2022-07-29T11:29:04;25.30;82.70
18593;DHT22;9426;54.118;17.948;2022-07-29T11:34:31;25.10;82.60
18593;DHT22;9426;54.118;17.948;2022-07-29T11:40:14;24.70;84.80
18593;DHT22;9426;54.118;17.948;2022-07-29T11:45:47;24.50;92.10
18593;DHT22;9426;54.118;17.948;2022-07-29T11:51:12;24.50;93.60
18593;DHT22;9426;54.118;17.948;2022-07-29T11:56:39;24.00;98.20
18593;DHT22;9426;54.118;17.948;2022-07-29T12:02:08;24.50;97.80
18593;DHT22;9426;54.118;17.948;2022-07-29T12:07:53;24.90;97.60
18593;DHT22;9426;54.118;17.948;2022-07-29T12:18:41;26.40;71.30
18593;DHT22;9426;54.118;17.948;2022-07-29T12:24:06;26.20;71.60
18593;DHT22;9426;54.118;17.948;2022-07-29T12:29:30;25.40;69.90
18593;DHT22;9426;54.118;17.948;2022-07-29T12:34:53;25.60;70.90
18593;DHT22;9426;54.118;17.948;2022-07-29T12:40:18;27.00;70.20
18593;DHT22;9426;54.118;17.948;2022-07-29T12:45:46;26.90;64.00
18593;DHT22;9426;54.118;17.948;2022-07-29T12:51:10;25.80;64.60
18593;DHT22;9426;54.118;17.948;2022-07-29T12:56:37;25.20;66.30
18593;DHT22;9426;54.118;17.948;2022-07-29T13:02:06;24.80;69.40
18593;DHT22;9426;54.118;17.948;2022-07-29T13:30:21;26.20;66.50
18593;DHT22;9426;54.118;17.948;2022-07-29T13:55:26;29.90;56.00
18593;DHT22;9426;54.118;17.948;2022-07-29T14:00:50;30.00;53.40
18593;DHT22;9426;54.118;17.948;2022-07-29T14:06:13;28.40;55.40
18593;DHT22;9426;54.118;17.948;2022-07-29T14:11:38;27.80;56.20
18593;DHT22;9426;54.118;17.948;2022-07-29T14:17:01;28.00;57.70
18593;DHT22;9426;54.118;17.948;2022-07-29T14:22:25;27.90;56.50
18593;DHT22;9426;54.118;17.948;2022-07-29T14:27:53;28.70;55.00
18593;DHT22;9426;54.118;17.948;2022-07-29T14:33:16;29.90;51.20
18593;DHT22;9426;54.118;17.948;2022-07-29T14:38:40;29.70;50.40
18593;DHT22;9426;54.118;17.948;2022-07-29T14:44:04;30.10;50.10
18593;DHT22;9426;54.118;17.948;2022-07-29T14:49:28;29.70;49.90
18593;DHT22;9426;54.118;17.948;2022-07-29T15:01:43;31.20;47.00
18593;DHT22;9426;54.118;17.948;2022-07-29T15:07:07;29.60;48.90
18593;DHT22;9426;54.118;17.948;2022-07-29T15:12:30;28.30;51.30
18593;DHT22;9426;54.118;17.948;2022-07-29T15:17:55;28.70;51.20
18593;DHT22;9426;54.118;17.948;2022-07-29T15:23:20;30.60;47.40
18593;DHT22;9426;54.118;17.948;2022-07-29T15:28:44;30.10;48.70
18593;DHT22;9426;54.118;17.948;2022-07-29T15:42:06;29.60;47.60
18593;DHT22;9426;54.118;17.948;2022-07-29T15:47:30;28.80;48.50
18593;DHT22;9426;54.118;17.948;2022-07-29T15:52:53;29.40;47.50
18593;DHT22;9426;54.118;17.948;2022-07-29T15:58:18;30.30;46.30
18593;DHT22;9426;54.118;17.948;2022-07-29T16:03:43;30.40;45.30
18593;DHT22;9426;54.118;17.948;2022-07-29T16:09:07;27.90;48.20
18593;DHT22;9426;54.118;17.948;2022-07-29T16:14:32;27.30;49.30
18593;DHT22;9426;54.118;17.948;2022-07-29T16:19:58;25.80;51.30
18593;DHT22;9426;54.118;17.948;2022-07-29T16:25:22;25.20;53.40
18593;DHT22;9426;54.118;17.948;2022-07-29T16:30:56;25.40;54.10
18593;DHT22;9426;54.118;17.948;2022-07-29T16:36:20;27.20;52.60
18593;DHT22;9426;54.118;17.948;2022-07-29T16:41:43;28.60;50.70
18593;DHT22;9426;54.118;17.948;2022-07-29T16:47:35;30.00;48.40
18593;DHT22;9426;54.118;17.948;2022-07-29T16:52:59;29.20;48.90
18593;DHT22;9426;54.118;17.948;2022-07-29T16:58:59;27.30;51.20
18593;DHT22;9426;54.118;17.948;2022-07-29T17:12:16;22.90;62.70
18593;DHT22;9426;54.118;17.948;2022-07-29T18:04:38;18.60;99.90
18593;DHT22;9426;54.118;17.948;2022-07-29T18:11:15;17.40;99.90
18593;DHT22;9426;54.118;17.948;2022-07-29T18:17:05;17.40;99.90
18593;DHT22;9426;54.118;17.948;2022-07-29T19:11:57;15.70;99.90
18593;DHT22;9426;54.118;17.948;2022-07-29T19:18:32;15.90;99.90
18593;DHT22;9426;54.118;17.948;2022-07-29T19:37:10;14.70;99.90
18593;DHT22;9426;54.118;17.948;2022-07-29T19:42:34;15.00;99.90
18593;DHT22;9426;54.118;17.948;2022-07-29T19:47:58;14.90;99.90
18593;DHT22;9426;54.118;17.948;2022-07-29T19:53:24;14.70;99.90
18593;DHT22;9426;54.118;17.948;2022-07-29T19:58:47;14.60;99.90
18593;DHT22;9426;54.118;17.948;2022-07-29T20:04:11;14.50;99.90
18593;DHT22;9426;54.118;17.948;2022-07-29T20:09:35;14.40;99.90
18593;DHT22;9426;54.118;17.948;2022-07-29T20:15:01;14.30;99.90
18593;DHT22;9426;54.118;17.948;2022-07-29T20:20:25;14.30;99.90
18593;DHT22;9426;54.118;17.948;2022-07-29T20:26:18;14.20;99.90
18593;DHT22;9426;54.118;17.948;2022-07-29T20:47:25;15.10;99.90
18593;DHT22;9426;54.118;17.948;2022-07-29T21:49:11;13.60;99.90
18593;DHT22;9426;54.118;17.948;2022-07-29T21:54:36;13.50;99.90
18593;DHT22;9426;54.118;17.948;2022-07-29T22:00:05;13.60;99.90
18593;DHT22;9426;54.118;17.948;2022-07-29T22:05:34;13.70;99.90
18593;DHT22;9426;54.118;17.948;2022-07-29T22:10:57;13.60;99.90
18593;DHT22;9426;54.118;17.948;2022-07-29T22:16:23;13.70;99.90
18593;DHT22;9426;54.118;17.948;2022-07-29T22:21:47;13.80;99.90
18593;DHT22;9426;54.118;17.948;2022-07-29T22:27:10;13.80;99.90
18593;DHT22;9426;54.118;17.948;2022-07-29T22:32:36;13.80;99.90
18593;DHT22;9426;54.118;17.948;2022-07-29T22:37:59;13.80;99.90
18593;DHT22;9426;54.118;17.948;2022-07-29T22:43:22;13.70;99.90
18593;DHT22;9426;54.118;17.948;2022-07-29T22:48:47;13.60;99.90
18593;DHT22;9426;54.118;17.948;2022-07-29T22:54:10;13.60;99.90
18593;DHT22;9426;54.118;17.948;2022-07-29T22:59:34;13.60;99.90
18593;DHT22;9426;54.118;17.948;2022-07-29T23:04:59;13.60;99.90
18593;DHT22;9426;54.118;17.948;2022-07-29T23:10:23;13.60;99.90
18593;DHT22;9426;54.118;17.948;2022-07-29T23:15:47;13.60;99.90
18593;DHT22;9426;54.118;17.948;2022-07-29T23:21:12;13.60;99.90
18593;DHT22;9426;54.118;17.948;2022-07-29T23:31:59;13.60;99.90
18593;DHT22;9426;54.118;17.948;2022-07-29T23:37:24;13.60;99.90
18593;DHT22;9426;54.118;17.948;2022-07-29T23:48:11;13.50;99.90
18593;DHT22;9426;54.118;17.948;2022-07-29T23:53:37;13.50;99.90
18593;DHT22;9426;54.118;17.948;2022-07-29T23:59:00;13.40;99.90
